Tipton, Oklahoma
Current Conditions -  °F | °C
As of 7:58 PM on Tuesday 21 Oct 2014 (Local Time) from KLTS Reporting Station
Clear Clear  
Wind Chill: 66°   Ceiling: Unl
Heat Index: 66°   Visibility: 10mi
Dew Point: 52°   Wind: 7mph
Humidity: 61%   Direction: 120°ESE
Pressure: 30.02"   Gusts: NA
Location:  34.5°N, 99.14°W
Report Text: KLTS 220058Z 12006KT 10SM CLR 19/11 A3002 RMK AO2A SLP160 T01870110 $
Loading
Personal Weather Stations






























Interactive Weather Map New forecast layout! Learn more

10-Day Weather Forecast

Advertisements
Track Severe Weather on mobile